Time;durP1;ratioP1;P1;durP2;ratioP2;P2;SDS_P1;SDS_P2;PMS_P1;PMS_P2;Temp;Humidity;BMP_temperature;BMP_pressure;BME280_temperature;BME280_humidity;BME280_pressure;Samples;Min_cycle;Max_cycle;Signal;HPM_P1;HPM_P2
2021/08/19 00:00:45;;;;;;;2.20;0.77;;;;;;;;;;4897875;29;20048;-66
2021/08/19 00:03:11;;;;;;;0.70;0.70;;;;;;;;;;4897656;29;20052;-66
2021/08/19 00:05:38;;;;;;;2.13;0.60;;;;;;;;;;4897702;29;20091;-66
2021/08/19 00:08:05;;;;;;;0.60;0.60;;;;;;;;;;4897582;29;20476;-66
2021/08/19 00:10:31;;;;;;;0.68;0.60;;;;;;;;;;4897560;29;20143;-65
2021/08/19 00:12:59;;;;;;;0.60;0.40;;;;;;;;;;4897432;29;20053;-66
2021/08/19 00:15:26;;;;;;;0.55;0.40;;;;;;;;;;4897729;29;20076;-65
2021/08/19 00:17:52;;;;;;;0.40;0.40;;;;;;;;;;4896281;29;20087;-65
2021/08/19 00:20:19;;;;;;;0.80;0.63;;;;;;;;;;4897481;29;20534;-65
2021/08/19 00:22:45;;;;;;;1.52;1.00;;;;;;;;;;4897222;29;20079;-66
2021/08/19 00:25:12;;;;;;;0.60;0.60;;;;;;;;;;4897489;29;20052;-66
2021/08/19 00:27:39;;;;;;;0.68;0.50;;;;;;;;;;4896448;29;20084;-65
2021/08/19 00:30:06;;;;;;;0.70;0.60;;;;;;;;;;4897457;29;20431;-66
2021/08/19 00:32:32;;;;;;;1.70;0.77;;;;;;;;;;4897141;29;20090;-66
2021/08/19 00:34:59;;;;;;;0.52;0.52;;;;;;;;;;4897428;29;20156;-65
2021/08/19 00:37:25;;;;;;;0.77;0.47;;;;;;;;;;4897081;29;20072;-66
2021/08/19 00:39:52;;;;;;;0.52;0.30;;;;;;;;;;4897553;29;20076;-66
2021/08/19 00:42:18;;;;;;;0.50;0.50;;;;;;;;;;4912210;29;20063;-65
2021/08/19 00:44:47;;;;;;;0.50;0.50;;;;;;;;;;4897106;29;20114;-65
2021/08/19 00:47:13;;;;;;;2.05;0.73;;;;;;;;;;4896827;29;20084;-65
2021/08/19 00:49:44;;;;;;;0.73;0.60;;;;;;;;;;4896999;29;20053;-65
2021/08/19 00:52:12;;;;;;;0.77;0.52;;;;;;;;;;4897047;29;20052;-66
2021/08/19 00:54:38;;;;;;;1.30;0.75;;;;;;;;;;4913227;29;20111;-65
2021/08/19 00:57:06;;;;;;;0.85;0.60;;;;;;;;;;4915854;29;20091;-65
2021/08/19 00:59:33;;;;;;;0.73;0.73;;;;;;;;;;4915741;29;20119;-66
2021/08/19 01:02:00;;;;;;;0.75;0.70;;;;;;;;;;4915530;29;20055;-65
2021/08/19 01:04:30;;;;;;;2.70;0.60;;;;;;;;;;4915801;29;20500;-65
2021/08/19 01:06:59;;;;;;;0.57;0.50;;;;;;;;;;4915636;29;20083;-66
2021/08/19 01:09:26;;;;;;;0.60;0.60;;;;;;;;;;4897387;29;20091;-65
2021/08/19 01:11:52;;;;;;;0.60;0.60;;;;;;;;;;4896898;29;20080;-65
2021/08/19 01:14:19;;;;;;;0.40;0.40;;;;;;;;;;4895576;29;20080;-65
2021/08/19 01:16:46;;;;;;;0.63;0.57;;;;;;;;;;4897369;29;20076;-66
2021/08/19 01:19:17;;;;;;;2.92;1.05;;;;;;;;;;4896599;29;20528;-66
2021/08/19 01:21:44;;;;;;;0.50;0.50;;;;;;;;;;4896556;29;20088;-66
2021/08/19 01:24:12;;;;;;;1.33;0.70;;;;;;;;;;4896621;29;20425;-66
2021/08/19 01:26:39;;;;;;;0.70;0.70;;;;;;;;;;4896584;29;20076;-65
2021/08/19 01:29:06;;;;;;;1.92;1.42;;;;;;;;;;4896712;29;20083;-65
2021/08/19 01:31:33;;;;;;;2.60;1.85;;;;;;;;;;4896355;29;20088;-65
2021/08/19 01:34:00;;;;;;;1.88;1.02;;;;;;;;;;4896938;29;20057;-65
2021/08/19 01:36:26;;;;;;;1.90;0.95;;;;;;;;;;4900263;29;20076;-65
2021/08/19 01:38:53;;;;;;;2.05;0.70;;;;;;;;;;4915414;29;20087;-65
2021/08/19 01:41:21;;;;;;;0.90;0.75;;;;;;;;;;4918959;29;20056;-66
2021/08/19 01:43:51;;;;;;;1.80;0.68;;;;;;;;;;4919312;29;20083;-65
2021/08/19 01:46:19;;;;;;;0.70;0.70;;;;;;;;;;4919100;29;20090;-65
2021/08/19 01:48:47;;;;;;;0.60;0.60;;;;;;;;;;4919028;29;20103;-65
2021/08/19 01:51:17;;;;;;;0.77;0.77;;;;;;;;;;4918949;29;20099;-65
2021/08/19 01:53:47;;;;;;;0.80;0.80;;;;;;;;;;4918967;29;20087;-65
2021/08/19 01:56:14;;;;;;;1.30;0.88;;;;;;;;;;4919002;29;20088;-65
2021/08/19 01:58:41;;;;;;;1.05;0.88;;;;;;;;;;4918747;29;20083;-65
2021/08/19 02:01:08;;;;;;;1.10;0.80;;;;;;;;;;4918676;29;20082;-65
2021/08/19 02:03:34;;;;;;;1.85;1.00;;;;;;;;;;4918710;29;20052;-65
2021/08/19 02:06:01;;;;;;;0.88;0.75;;;;;;;;;;4918872;29;20079;-65
2021/08/19 02:08:27;;;;;;;1.05;1.00;;;;;;;;;;4918567;29;20084;-65
2021/08/19 02:10:54;;;;;;;1.52;1.02;;;;;;;;;;4918697;29;20087;-65
2021/08/19 02:13:21;;;;;;;1.65;0.70;;;;;;;;;;4918883;29;20453;-65
2021/08/19 02:15:47;;;;;;;3.70;0.98;;;;;;;;;;4918586;29;20479;-65
2021/08/19 02:18:14;;;;;;;1.00;0.90;;;;;;;;;;4918666;29;20405;-65
2021/08/19 02:20:40;;;;;;;1.40;0.88;;;;;;;;;;4918499;29;20075;-66
2021/08/19 02:23:07;;;;;;;1.48;1.00;;;;;;;;;;4918236;29;20549;-65
2021/08/19 02:25:33;;;;;;;1.35;1.05;;;;;;;;;;4902847;29;20471;-65
2021/08/19 02:28:00;;;;;;;1.10;1.00;;;;;;;;;;4899483;29;20052;-65
2021/08/19 02:30:27;;;;;;;1.17;1.08;;;;;;;;;;4899499;29;20088;-66
2021/08/19 02:32:56;;;;;;;1.05;0.95;;;;;;;;;;4902503;29;20474;-65
2021/08/19 02:35:26;;;;;;;1.10;1.00;;;;;;;;;;4907233;29;20103;-65
2021/08/19 02:37:53;;;;;;;3.55;1.20;;;;;;;;;;4898314;29;20459;-65
2021/08/19 02:40:23;;;;;;;1.30;1.00;;;;;;;;;;4899301;29;20075;-65
2021/08/19 02:42:50;;;;;;;1.95;1.10;;;;;;;;;;4901819;29;20108;-65
2021/08/19 02:45:17;;;;;;;1.63;1.08;;;;;;;;;;4918131;29;20102;-65
2021/08/19 02:47:43;;;;;;;1.45;1.30;;;;;;;;;;4917887;29;20076;-65
2021/08/19 02:50:10;;;;;;;1.17;1.10;;;;;;;;;;4916821;29;20072;-65
2021/08/19 02:52:37;;;;;;;2.35;1.20;;;;;;;;;;4916104;29;20083;-65
2021/08/19 02:55:05;;;;;;;1.42;1.33;;;;;;;;;;4899208;29;20098;-65
2021/08/19 02:57:32;;;;;;;1.80;1.25;;;;;;;;;;4899046;29;20049;-65
2021/08/19 02:59:58;;;;;;;1.33;1.10;;;;;;;;;;4899145;29;20465;-66
2021/08/19 03:02:25;;;;;;;1.13;1.10;;;;;;;;;;4899283;29;20057;-66
2021/08/19 03:04:52;;;;;;;1.52;1.10;;;;;;;;;;4917259;29;20488;-66
2021/08/19 03:07:18;;;;;;;1.85;1.15;;;;;;;;;;4917629;29;20098;-66
2021/08/19 03:09:45;;;;;;;1.35;1.20;;;;;;;;;;4917650;29;20095;-66
2021/08/19 03:12:12;;;;;;;1.35;1.25;;;;;;;;;;4917527;29;20098;-65
2021/08/19 03:14:38;;;;;;;1.30;1.20;;;;;;;;;;4912957;29;20084;-65
2021/08/19 03:17:06;;;;;;;1.42;1.00;;;;;;;;;;4898711;29;20098;-66
2021/08/19 03:19:35;;;;;;;1.15;1.05;;;;;;;;;;4898452;29;20502;-66
2021/08/19 03:22:02;;;;;;;1.15;1.05;;;;;;;;;;4898599;29;20053;-66
2021/08/19 03:24:29;;;;;;;1.65;1.38;;;;;;;;;;4898390;29;20144;-66
2021/08/19 03:26:57;;;;;;;1.63;0.93;;;;;;;;;;4898648;29;20080;-66
2021/08/19 03:29:24;;;;;;;1.30;1.20;;;;;;;;;;4898191;29;20099;-66
2021/08/19 03:31:50;;;;;;;1.63;1.20;;;;;;;;;;4898293;29;20512;-66
2021/08/19 03:34:17;;;;;;;1.42;1.00;;;;;;;;;;4898475;29;20107;-66
2021/08/19 03:36:44;;;;;;;1.50;1.10;;;;;;;;;;4898187;29;20060;-66
2021/08/19 03:39:11;;;;;;;1.33;1.23;;;;;;;;;;4898454;29;20076;-66
2021/08/19 03:41:37;;;;;;;0.93;0.93;;;;;;;;;;4897930;29;20098;-66
2021/08/19 03:44:04;;;;;;;0.93;0.82;;;;;;;;;;4898211;29;20091;-66
2021/08/19 03:46:32;;;;;;;1.30;1.20;;;;;;;;;;4898497;29;20087;-66
2021/08/19 03:48:59;;;;;;;1.63;1.25;;;;;;;;;;4897924;29;20092;-66
2021/08/19 03:51:27;;;;;;;1.88;1.08;;;;;;;;;;4897870;29;20052;-66
2021/08/19 03:53:55;;;;;;;1.70;1.40;;;;;;;;;;4907464;29;20122;-66
2021/08/19 03:56:22;;;;;;;1.95;1.10;;;;;;;;;;4916780;29;20052;-66
2021/08/19 03:58:48;;;;;;;1.25;1.15;;;;;;;;;;4916696;29;20087;-66
2021/08/19 04:01:15;;;;;;;1.20;1.10;;;;;;;;;;4916610;29;20083;-66
2021/08/19 04:03:41;;;;;;;1.15;1.00;;;;;;;;;;4915389;29;20056;-66
2021/08/19 04:06:08;;;;;;;1.33;1.02;;;;;;;;;;4917246;29;20055;-66
2021/08/19 04:08:34;;;;;;;1.20;1.10;;;;;;;;;;4916304;29;20076;-66
2021/08/19 04:11:01;;;;;;;1.20;1.10;;;;;;;;;;4916263;29;20079;-66
2021/08/19 04:13:27;;;;;;;2.80;1.30;;;;;;;;;;4899273;29;20076;-66
2021/08/19 04:15:54;;;;;;;1.10;1.00;;;;;;;;;;4898404;29;20083;-66
2021/08/19 04:18:21;;;;;;;1.48;0.90;;;;;;;;;;4898164;29;20048;-66
2021/08/19 04:20:47;;;;;;;1.40;1.20;;;;;;;;;;4898483;29;20493;-66
2021/08/19 04:23:14;;;;;;;4.38;1.38;;;;;;;;;;4898279;29;20080;-66
2021/08/19 04:25:40;;;;;;;1.63;1.10;;;;;;;;;;4898309;29;20465;-66
2021/08/19 04:28:07;;;;;;;2.38;1.40;;;;;;;;;;4902916;29;20518;-66
2021/08/19 04:30:34;;;;;;;1.50;1.40;;;;;;;;;;4936489;29;20054;-66
2021/08/19 04:33:00;;;;;;;2.85;1.42;;;;;;;;;;4936022;29;20586;-67
2021/08/19 04:35:31;;;;;;;2.80;1.27;;;;;;;;;;4936227;29;20071;-67
2021/08/19 04:37:58;;;;;;;1.38;1.27;;;;;;;;;;4935712;29;20087;-67
2021/08/19 04:40:24;;;;;;;2.65;1.50;;;;;;;;;;4936046;29;20562;-66
2021/08/19 04:42:51;;;;;;;1.67;1.52;;;;;;;;;;4934820;29;20056;-66
2021/08/19 04:45:18;;;;;;;2.35;1.45;;;;;;;;;;4935058;29;20086;-66
2021/08/19 04:47:45;;;;;;;1.70;1.45;;;;;;;;;;4934964;29;20059;-66
2021/08/19 04:50:12;;;;;;;2.25;1.27;;;;;;;;;;4934885;29;20503;-66
2021/08/19 04:52:39;;;;;;;3.33;1.60;;;;;;;;;;4934987;29;20402;-66
2021/08/19 04:55:07;;;;;;;2.65;1.58;;;;;;;;;;4934892;29;20080;-66
2021/08/19 04:57:33;;;;;;;2.92;1.52;;;;;;;;;;4935214;29;20503;-67
2021/08/19 05:00:00;;;;;;;1.75;1.65;;;;;;;;;;4936130;29;20097;-66
2021/08/19 05:02:27;;;;;;;3.20;1.38;;;;;;;;;;4935659;29;20047;-66
2021/08/19 05:04:53;;;;;;;1.70;1.40;;;;;;;;;;4935819;29;20051;-66
2021/08/19 05:07:20;;;;;;;1.83;1.40;;;;;;;;;;4935574;29;20526;-66
2021/08/19 05:09:46;;;;;;;2.67;1.42;;;;;;;;;;4935647;29;20586;-66
2021/08/19 05:12:14;;;;;;;4.32;2.03;;;;;;;;;;4935581;29;20094;-66
2021/08/19 05:14:40;;;;;;;3.13;1.60;;;;;;;;;;4934518;29;20090;-66
2021/08/19 05:17:07;;;;;;;1.40;1.30;;;;;;;;;;4935957;29;20126;-66
2021/08/19 05:19:33;;;;;;;2.17;1.35;;;;;;;;;;4936290;29;20490;-66
2021/08/19 05:22:00;;;;;;;2.50;2.20;;;;;;;;;;4934260;29;20083;-66
2021/08/19 05:24:27;;;;;;;1.83;1.30;;;;;;;;;;4934562;29;20079;-66
2021/08/19 05:26:53;;;;;;;2.13;1.50;;;;;;;;;;4934355;29;20082;-66
2021/08/19 05:29:20;;;;;;;1.92;1.30;;;;;;;;;;4923056;29;20102;-66
2021/08/19 05:31:46;;;;;;;2.15;1.50;;;;;;;;;;4915262;29;20412;-66
2021/08/19 05:34:13;;;;;;;2.25;1.55;;;;;;;;;;4915623;29;20482;-66
2021/08/19 05:36:41;;;;;;;2.15;1.45;;;;;;;;;;4915432;29;20119;-66
2021/08/19 05:39:08;;;;;;;2.10;1.25;;;;;;;;;;4901980;29;20060;-66
2021/08/19 05:41:34;;;;;;;2.78;1.30;;;;;;;;;;4896429;29;20084;-66
2021/08/19 05:44:03;;;;;;;2.90;1.42;;;;;;;;;;4896484;29;20499;-66
2021/08/19 05:46:30;;;;;;;1.88;1.27;;;;;;;;;;4896494;29;20098;-66
2021/08/19 05:48:57;;;;;;;2.03;1.52;;;;;;;;;;4896285;29;20132;-66
2021/08/19 05:51:23;;;;;;;2.28;2.08;;;;;;;;;;4896343;29;20088;-66
2021/08/19 05:53:50;;;;;;;2.03;1.60;;;;;;;;;;4896479;29;20087;-66
2021/08/19 05:56:16;;;;;;;3.90;1.50;;;;;;;;;;4896474;29;20083;-66
2021/08/19 05:58:43;;;;;;;2.60;1.30;;;;;;;;;;4896305;29;20076;-66
2021/08/19 06:01:09;;;;;;;2.65;1.45;;;;;;;;;;4900522;29;20048;-66
2021/08/19 06:03:36;;;;;;;2.33;1.63;;;;;;;;;;4915299;29;20550;-66
2021/08/19 06:06:03;;;;;;;3.05;1.90;;;;;;;;;;4915295;29;20063;-66
2021/08/19 06:08:30;;;;;;;1.70;1.60;;;;;;;;;;4914921;29;20048;-67
2021/08/19 06:10:56;;;;;;;2.00;1.55;;;;;;;;;;4915308;29;20084;-66
2021/08/19 06:13:23;;;;;;;3.58;1.90;;;;;;;;;;4913996;29;20482;-66
2021/08/19 06:15:49;;;;;;;2.55;1.60;;;;;;;;;;4915211;29;20052;-66
2021/08/19 06:18:16;;;;;;;2.42;2.03;;;;;;;;;;4915164;29;20076;-66
2021/08/19 06:20:42;;;;;;;1.63;1.50;;;;;;;;;;4913472;29;20080;-66
2021/08/19 06:23:12;;;;;;;1.50;1.40;;;;;;;;;;4913144;29;20048;-66
2021/08/19 06:25:39;;;;;;;2.20;1.60;;;;;;;;;;4913192;29;20526;-66
2021/08/19 06:28:06;;;;;;;3.47;1.58;;;;;;;;;;4916382;29;20095;-66
2021/08/19 06:30:33;;;;;;;1.40;1.30;;;;;;;;;;4916678;29;20075;-66
2021/08/19 06:33:00;;;;;;;1.60;1.38;;;;;;;;;;4916544;29;20508;-66
2021/08/19 06:35:27;;;;;;;2.28;1.90;;;;;;;;;;4916040;29;20094;-66
2021/08/19 06:37:53;;;;;;;3.95;1.45;;;;;;;;;;4916380;29;20096;-66
2021/08/19 06:40:20;;;;;;;2.65;1.30;;;;;;;;;;4916510;29;20091;-66
2021/08/19 06:42:47;;;;;;;1.58;1.27;;;;;;;;;;4916248;29;20079;-66
2021/08/19 06:45:14;;;;;;;1.63;1.52;;;;;;;;;;4916492;29;20056;-66
2021/08/19 06:47:41;;;;;;;1.55;1.45;;;;;;;;;;4915724;29;20119;-66
2021/08/19 06:50:08;;;;;;;1.83;1.67;;;;;;;;;;4916197;29;20143;-66
2021/08/19 06:52:39;;;;;;;1.40;1.30;;;;;;;;;;4916076;29;20090;-66
2021/08/19 06:55:07;;;;;;;3.55;1.35;;;;;;;;;;4916311;29;20143;-66
2021/08/19 06:57:34;;;;;;;2.65;1.75;;;;;;;;;;4915988;29;20091;-66
2021/08/19 07:00:00;;;;;;;2.22;1.80;;;;;;;;;;4901612;29;20080;-66
2021/08/19 07:02:27;;;;;;;2.08;1.67;;;;;;;;;;4897038;29;20056;-66
2021/08/19 07:04:54;;;;;;;2.33;1.77;;;;;;;;;;4897318;29;20155;-66
2021/08/19 07:07:21;;;;;;;2.15;1.20;;;;;;;;;;4895802;29;20099;-64
2021/08/19 07:09:48;;;;;;;1.73;1.48;;;;;;;;;;4897041;29;20080;-64
2021/08/19 07:12:15;;;;;;;3.15;1.40;;;;;;;;;;4896970;29;20081;-65
2021/08/19 07:14:41;;;;;;;1.60;1.40;;;;;;;;;;4896659;29;20202;-64
2021/08/19 07:17:08;;;;;;;1.70;1.60;;;;;;;;;;4896966;29;20084;-64
2021/08/19 07:19:35;;;;;;;1.73;1.63;;;;;;;;;;4896942;29;20124;-64
2021/08/19 07:22:04;;;;;;;1.42;1.30;;;;;;;;;;4896772;29;20064;-65
2021/08/19 07:24:31;;;;;;;1.85;1.75;;;;;;;;;;4896127;29;20522;-64
2021/08/19 07:26:57;;;;;;;2.55;1.73;;;;;;;;;;4896330;29;20086;-65
2021/08/19 07:29:24;;;;;;;1.50;1.40;;;;;;;;;;4896631;29;20135;-64
2021/08/19 07:31:50;;;;;;;2.13;1.73;;;;;;;;;;4896515;29;20108;-65
2021/08/19 07:34:17;;;;;;;3.35;1.48;;;;;;;;;;4896846;29;20083;-64
2021/08/19 07:36:44;;;;;;;5.75;1.85;;;;;;;;;;4895826;29;20083;-65
2021/08/19 07:39:10;;;;;;;2.67;1.67;;;;;;;;;;4900215;29;20076;-71
2021/08/19 07:41:37;;;;;;;2.47;1.60;;;;;;;;;;4908479;29;20076;-72
2021/08/19 07:44:04;;;;;;;3.70;1.83;;;;;;;;;;4906511;29;20129;-72
2021/08/19 07:46:43;;;;;;;4.10;2.08;;;;;;;;;;4904673;29;20097;-75
2021/08/19 07:49:10;;;;;;;1.73;1.63;;;;;;;;;;4907699;29;20048;-76
2021/08/19 07:51:40;;;;;;;1.60;1.50;;;;;;;;;;4911601;23;20477;-73
2021/08/19 07:54:06;;;;;;;2.28;1.48;;;;;;;;;;4916111;29;20764;-73
2021/08/19 07:56:33;;;;;;;6.45;2.58;;;;;;;;;;4915184;29;20048;-70
2021/08/19 07:59:00;;;;;;;1.40;1.20;;;;;;;;;;4915172;29;20100;-71
2021/08/19 08:01:26;;;;;;;2.08;1.52;;;;;;;;;;4910465;29;20057;-74
2021/08/19 08:03:53;;;;;;;1.40;1.30;;;;;;;;;;4885527;29;20064;-74
2021/08/19 08:06:20;;;;;;;2.05;1.58;;;;;;;;;;4887775;29;20077;-70
2021/08/19 08:08:47;;;;;;;2.65;1.58;;;;;;;;;;4887275;29;20053;-69
2021/08/19 08:11:14;;;;;;;1.50;1.40;;;;;;;;;;4886808;29;20059;-66
2021/08/19 08:13:41;;;;;;;2.97;1.67;;;;;;;;;;4884054;29;20068;-66
2021/08/19 08:16:08;;;;;;;4.78;1.35;;;;;;;;;;4889087;29;20139;-66
2021/08/19 08:18:35;;;;;;;1.60;1.48;;;;;;;;;;4898178;29;20060;-67
2021/08/19 08:21:03;;;;;;;2.80;1.58;;;;;;;;;;4887234;29;20056;-70
2021/08/19 08:23:36;;;;;;;1.90;1.73;;;;;;;;;;4884911;29;20064;-66
2021/08/19 08:26:05;;;;;;;1.40;1.30;;;;;;;;;;4883833;29;20057;-69
2021/08/19 08:28:32;;;;;;;1.50;1.40;;;;;;;;;;4887748;29;20560;-68
2021/08/19 08:31:01;;;;;;;2.67;1.48;;;;;;;;;;4883451;29;20053;-68
2021/08/19 08:33:31;;;;;;;1.75;1.30;;;;;;;;;;4885183;29;20567;-65
2021/08/19 08:35:59;;;;;;;2.63;1.77;;;;;;;;;;4883882;29;20052;-66
2021/08/19 08:38:29;;;;;;;2.25;1.70;;;;;;;;;;4886223;29;20580;-66
2021/08/19 08:40:56;;;;;;;2.60;1.20;;;;;;;;;;4886104;29;20064;-66
2021/08/19 08:43:27;;;;;;;3.28;1.25;;;;;;;;;;4883421;29;20053;-66
2021/08/19 08:45:55;;;;;;;2.33;1.50;;;;;;;;;;4887794;29;20049;-66
2021/08/19 08:48:24;;;;;;;2.33;1.52;;;;;;;;;;4882906;29;20453;-66
2021/08/19 08:50:53;;;;;;;1.73;1.40;;;;;;;;;;4884840;29;20056;-66
2021/08/19 08:53:21;;;;;;;3.88;2.15;;;;;;;;;;4898234;29;20140;-66
2021/08/19 08:55:49;;;;;;;3.90;1.48;;;;;;;;;;4884214;29;20052;-65
2021/08/19 08:58:17;;;;;;;1.50;1.38;;;;;;;;;;4883093;29;20473;-66
2021/08/19 09:00:46;;;;;;;2.28;1.27;;;;;;;;;;4897793;29;20519;-66
2021/08/19 09:03:18;;;;;;;1.92;1.30;;;;;;;;;;4888449;29;20052;-66
2021/08/19 09:05:48;;;;;;;3.37;1.33;;;;;;;;;;4886927;29;20049;-66
2021/08/19 09:08:20;;;;;;;2.80;1.60;;;;;;;;;;4888690;29;20057;-66
2021/08/19 09:10:48;;;;;;;4.30;1.42;;;;;;;;;;4889392;29;20567;-66
2021/08/19 09:13:18;;;;;;;1.23;1.13;;;;;;;;;;4880057;29;20088;-66
2021/08/19 09:15:47;;;;;;;2.35;1.85;;;;;;;;;;4885026;29;20052;-66
2021/08/19 09:18:27;;;;;;;2.30;1.48;;;;;;;;;;4899921;29;20057;-67
2021/08/19 09:20:54;;;;;;;2.50;1.65;;;;;;;;;;4884555;29;20488;-66
2021/08/19 09:23:21;;;;;;;1.95;1.55;;;;;;;;;;4886529;29;20318;-68
2021/08/19 09:25:48;;;;;;;3.03;1.95;;;;;;;;;;4885319;29;20049;-68
2021/08/19 09:28:18;;;;;;;3.55;1.80;;;;;;;;;;4882934;29;20108;-73
2021/08/19 09:30:55;;;;;;;2.42;1.48;;;;;;;;;;4867505;29;20053;-71
2021/08/19 09:33:31;;;;;;;2.50;1.10;;;;;;;;;;4886247;29;20104;-71
2021/08/19 09:36:06;;;;;;;1.17;0.88;;;;;;;;;;4886067;29;21083;-71
2021/08/19 09:38:41;;;;;;;3.45;1.50;;;;;;;;;;4882822;29;20053;-71
2021/08/19 09:41:17;;;;;;;1.33;0.90;;;;;;;;;;4901041;29;20132;-71
2021/08/19 09:43:52;;;;;;;2.03;1.00;;;;;;;;;;4882726;29;20708;-70
2021/08/19 09:46:28;;;;;;;1.67;1.33;;;;;;;;;;4885181;29;20472;-70
2021/08/19 09:48:56;;;;;;;1.00;0.90;;;;;;;;;;4883936;29;20245;-70
2021/08/19 09:51:24;;;;;;;5.68;1.10;;;;;;;;;;4790835;29;2725035;-72
2021/08/19 09:53:58;;;;;;;1.27;1.00;;;;;;;;;;4885719;29;20049;-71
2021/08/19 09:56:33;;;;;;;2.30;0.88;;;;;;;;;;4884095;29;20131;-70
2021/08/19 09:59:23;;;;;;;2.35;0.88;;;;;;;;;;4881620;29;20056;-70
2021/08/19 10:01:52;;;;;;;0.63;0.52;;;;;;;;;;4878490;29;20048;-69
2021/08/19 10:04:21;;;;;;;1.42;0.90;;;;;;;;;;4904204;29;20057;-70
2021/08/19 10:06:49;;;;;;;1.02;0.70;;;;;;;;;;4887753;29;20060;-70
2021/08/19 10:09:16;;;;;;;2.28;0.73;;;;;;;;;;4904248;29;20048;-70
2021/08/19 10:11:46;;;;;;;1.60;0.60;;;;;;;;;;4888111;29;20480;-70
2021/08/19 10:14:18;;;;;;;1.48;0.82;;;;;;;;;;4895664;29;20052;-71
2021/08/19 10:16:47;;;;;;;0.70;0.63;;;;;;;;;;4887413;29;20056;-71
2021/08/19 10:19:18;;;;;;;1.08;0.70;;;;;;;;;;4890925;29;20053;-72
2021/08/19 10:21:51;;;;;;;0.75;0.70;;;;;;;;;;4887723;29;20069;-66
2021/08/19 10:24:18;;;;;;;;;;;;;;;;;;4890574;29;20053;-67
2021/08/19 10:26:45;;;;;;;2.65;0.90;;;;;;;;;;4890502;29;19931;-66
2021/08/19 10:29:13;;;;;;;2.13;0.93;;;;;;;;;;4888806;29;20057;-70
2021/08/19 10:31:46;;;;;;;1.25;0.93;;;;;;;;;;4885651;29;20095;-69
2021/08/19 10:34:19;;;;;;;0.77;0.65;;;;;;;;;;4888478;29;20052;-68
2021/08/19 10:36:49;;;;;;;1.98;0.90;;;;;;;;;;4893800;29;20571;-66
2021/08/19 10:39:20;;;;;;;1.05;0.60;;;;;;;;;;4887980;29;20099;-67
2021/08/19 10:41:54;;;;;;;4.03;1.20;;;;;;;;;;4884052;29;20056;-67
2021/08/19 10:44:35;;;;;;;0.60;0.60;;;;;;;;;;4882172;29;20068;-67
2021/08/19 10:47:03;;;;;;;0.70;0.68;;;;;;;;;;4886515;29;20112;-68
2021/08/19 10:49:35;;;;;;;1.25;0.90;;;;;;;;;;4883399;29;20056;-67
2021/08/19 10:52:08;;;;;;;1.73;0.77;;;;;;;;;;4882918;29;20069;-68
2021/08/19 10:54:40;;;;;;;1.20;0.95;;;;;;;;;;4887497;29;20485;-68
2021/08/19 10:57:30;;;;;;;0.77;0.70;;;;;;;;;;4883664;29;20057;-68
2021/08/19 11:00:09;;;;;;;1.13;0.90;;;;;;;;;;4886858;29;20048;-68
2021/08/19 11:02:40;;;;;;;2.20;0.90;;;;;;;;;;4886572;29;20501;-72
2021/08/19 11:05:12;;;;;;;1.10;0.80;;;;;;;;;;4886901;29;20127;-72
2021/08/19 11:07:49;;;;;;;1.15;1.05;;;;;;;;;;4885641;29;20056;-71
2021/08/19 11:10:21;;;;;;;1.23;1.10;;;;;;;;;;4886839;29;20056;-75
2021/08/19 11:12:50;;;;;;;3.00;1.63;;;;;;;;;;4877468;23;20172;-73
2021/08/19 11:15:21;;;;;;;2.97;1.50;;;;;;;;;;4863156;29;20062;-72
2021/08/19 11:17:57;;;;;;;2.20;1.33;;;;;;;;;;4849270;29;20089;-69
2021/08/19 11:20:30;;;;;;;1.70;1.10;;;;;;;;;;4851585;29;20050;-73
2021/08/19 11:23:07;;;;;;;2.83;1.17;;;;;;;;;;4863720;29;20045;-69
2021/08/19 11:25:39;;;;;;;1.73;1.23;;;;;;;;;;4869832;29;20057;-70
2021/08/19 11:28:17;;;;;;;1.85;1.13;;;;;;;;;;4864993;29;20053;-70
2021/08/19 11:30:47;;;;;;;1.50;1.25;;;;;;;;;;4869320;29;20417;-70
2021/08/19 11:33:24;;;;;;;4.15;1.42;;;;;;;;;;4867606;29;20114;-69
2021/08/19 11:35:54;;;;;;;1.50;1.20;;;;;;;;;;4872942;29;20059;-70
2021/08/19 11:38:22;;;;;;;1.92;1.40;;;;;;;;;;4884908;29;20058;-72
2021/08/19 11:40:52;;;;;;;1.60;1.20;;;;;;;;;;4868157;29;20064;-72
2021/08/19 11:43:32;;;;;;;1.73;1.00;;;;;;;;;;4867922;29;20552;-71
2021/08/19 11:46:19;;;;;;;1.80;1.20;;;;;;;;;;4885873;29;20577;-70
2021/08/19 11:48:59;;;;;;;1.73;1.15;;;;;;;;;;4860163;29;20106;-72
2021/08/19 11:51:35;;;;;;;1.58;1.02;;;;;;;;;;4869972;29;20073;-73
2021/08/19 11:54:06;;;;;;;2.38;1.40;;;;;;;;;;4867770;29;20053;-69
2021/08/19 11:56:36;;;;;;;3.60;1.20;;;;;;;;;;4872498;29;20056;-67
2021/08/19 11:59:07;;;;;;;1.42;0.98;;;;;;;;;;4870408;29;20109;-68
2021/08/19 12:01:36;;;;;;;3.03;1.65;;;;;;;;;;4870624;29;20048;-66
2021/08/19 12:04:04;;;;;;;1.35;1.25;;;;;;;;;;4871525;29;20063;-66
2021/08/19 12:06:32;;;;;;;2.17;1.30;;;;;;;;;;4868844;29;20421;-65
2021/08/19 12:09:06;;;;;;;1.52;1.13;;;;;;;;;;4868697;29;20429;-65
2021/08/19 12:11:43;;;;;;;2.30;1.10;;;;;;;;;;4872240;29;20053;-66
2021/08/19 12:14:12;;;;;;;2.33;1.30;;;;;;;;;;4870137;29;20065;-66
2021/08/19 12:16:51;;;;;;;1.52;1.27;;;;;;;;;;4868579;29;20057;-65
2021/08/19 12:19:24;;;;;;;3.05;1.10;;;;;;;;;;4865898;29;20068;-66
2021/08/19 12:21:51;;;;;;;1.10;0.90;;;;;;;;;;4867499;29;20149;-66
2021/08/19 12:24:21;;;;;;;1.40;1.10;;;;;;;;;;4868665;29;20941;-66
2021/08/19 12:27:18;;;;;;;2.03;1.10;;;;;;;;;;4881339;29;20498;-66
2021/08/19 12:29:48;;;;;;;1.40;1.13;;;;;;;;;;4868684;29;20105;-66
2021/08/19 12:32:29;;;;;;;2.80;1.30;;;;;;;;;;4872805;29;20109;-66
2021/08/19 12:35:12;;;;;;;1.90;1.27;;;;;;;;;;4872237;29;20105;-66
2021/08/19 12:37:58;;;;;;;1.42;1.00;;;;;;;;;;4867166;29;20053;-66
2021/08/19 12:40:31;;;;;;;0.95;0.90;;;;;;;;;;4874388;29;20493;-65
2021/08/19 12:43:07;;;;;;;;;;;;;;;;;;4874567;29;20573;-66
2021/08/19 12:45:34;;;;;;;1.25;0.80;;;;;;;;;;4865676;29;20351;-66
2021/08/19 12:48:04;;;;;;;1.00;0.90;;;;;;;;;;4866923;29;20061;-66
2021/08/19 12:50:31;;;;;;;1.40;1.20;;;;;;;;;;4866011;29;20057;-66
2021/08/19 12:53:05;;;;;;;1.50;1.30;;;;;;;;;;4873092;29;20049;-65
2021/08/19 12:55:32;;;;;;;1.95;1.23;;;;;;;;;;4867932;29;20045;-66
2021/08/19 12:57:59;;;;;;;1.13;0.85;;;;;;;;;;4886168;29;20053;-66
2021/08/19 13:00:28;;;;;;;1.45;1.10;;;;;;;;;;4868076;29;20048;-66
2021/08/19 13:02:56;;;;;;;1.00;0.88;;;;;;;;;;4868531;29;20049;-65
2021/08/19 13:05:26;;;;;;;3.67;1.30;;;;;;;;;;4873152;29;20058;-66
2021/08/19 13:07:55;;;;;;;0.90;0.90;;;;;;;;;;4865533;29;20519;-66
2021/08/19 13:10:23;;;;;;;1.52;1.10;;;;;;;;;;4875474;29;20148;-66
2021/08/19 13:12:50;;;;;;;1.50;1.20;;;;;;;;;;4868493;29;20057;-65
2021/08/19 13:15:18;;;;;;;1.20;1.10;;;;;;;;;;4871286;29;20048;-64
2021/08/19 13:17:45;;;;;;;2.03;1.35;;;;;;;;;;4865054;29;20084;-65
2021/08/19 13:20:13;;;;;;;2.05;1.60;;;;;;;;;;4869677;29;20080;-65
2021/08/19 13:22:40;;;;;;;1.85;1.23;;;;;;;;;;4868754;29;20141;-70
2021/08/19 13:25:07;;;;;;;1.30;1.20;;;;;;;;;;4870313;29;20133;-72
2021/08/19 13:27:34;;;;;;;1.63;1.20;;;;;;;;;;4864478;29;20128;-67
2021/08/19 13:30:01;;;;;;;1.67;1.27;;;;;;;;;;4864178;29;20046;-67
2021/08/19 13:32:28;;;;;;;1.48;1.17;;;;;;;;;;4866889;29;20103;-69
2021/08/19 13:34:55;;;;;;;1.40;1.30;;;;;;;;;;4865340;29;20098;-68
2021/08/19 13:37:21;;;;;;;1.63;1.30;;;;;;;;;;4868932;29;20091;-67
2021/08/19 13:39:48;;;;;;;2.65;1.40;;;;;;;;;;4869024;29;20053;-69
2021/08/19 13:42:15;;;;;;;1.73;1.30;;;;;;;;;;4870929;29;20103;-68
2021/08/19 13:44:42;;;;;;;1.45;1.17;;;;;;;;;;4869091;29;20061;-73
2021/08/19 13:47:09;;;;;;;1.50;1.40;;;;;;;;;;4871437;29;20057;-73
2021/08/19 13:49:54;;;;;;;3.45;1.30;;;;;;;;;;4886094;29;20618;-76
2021/08/19 13:52:21;;;;;;;1.90;1.20;;;;;;;;;;4881786;29;20517;-76
2021/08/19 13:54:48;;;;;;;2.30;1.35;;;;;;;;;;4868595;29;20053;-75
2021/08/19 13:57:14;;;;;;;1.88;1.45;;;;;;;;;;4883717;29;20053;-73
2021/08/19 13:59:41;;;;;;;2.63;1.60;;;;;;;;;;4867949;29;20053;-74
2021/08/19 14:02:12;;;;;;;1.48;1.30;;;;;;;;;;4870115;29;20046;-72
2021/08/19 14:04:39;;;;;;;1.75;1.23;;;;;;;;;;4857808;29;20061;-73
2021/08/19 14:07:06;;;;;;;1.92;1.50;;;;;;;;;;4869070;29;20092;-69
2021/08/19 14:09:33;;;;;;;1.77;1.40;;;;;;;;;;4867632;29;20058;-75
2021/08/19 14:11:59;;;;;;;2.30;1.50;;;;;;;;;;4867963;29;20049;-71
2021/08/19 14:14:26;;;;;;;1.52;1.38;;;;;;;;;;4871172;29;20581;-73
2021/08/19 14:16:53;;;;;;;2.13;1.63;;;;;;;;;;4867712;29;20052;-72
2021/08/19 14:19:20;;;;;;;2.13;1.48;;;;;;;;;;4867603;29;20057;-70
2021/08/19 14:21:47;;;;;;;1.63;1.38;;;;;;;;;;4870869;29;20053;-73
2021/08/19 14:24:14;;;;;;;1.52;1.42;;;;;;;;;;4869026;29;20425;-71
2021/08/19 14:26:42;;;;;;;2.63;2.42;;;;;;;;;;4871409;29;20067;-73
2021/08/19 14:29:08;;;;;;;2.88;1.85;;;;;;;;;;4872595;29;20052;-73
2021/08/19 14:31:45;;;;;;;2.88;1.80;;;;;;;;;;4867277;29;20046;-72
2021/08/19 14:34:12;;;;;;;1.85;1.60;;;;;;;;;;4865558;29;20080;-70
2021/08/19 14:36:38;;;;;;;2.50;1.70;;;;;;;;;;4867400;29;20081;-71
2021/08/19 14:39:08;;;;;;;1.92;1.70;;;;;;;;;;4870519;29;20088;-71
2021/08/19 14:41:34;;;;;;;3.55;1.90;;;;;;;;;;4867078;29;20080;-74
2021/08/19 14:44:01;;;;;;;1.63;1.30;;;;;;;;;;4871573;29;20087;-71
2021/08/19 14:46:27;;;;;;;3.05;1.35;;;;;;;;;;4866719;29;20101;-71
2021/08/19 14:48:54;;;;;;;2.78;1.55;;;;;;;;;;4882058;29;20077;-68
2021/08/19 14:51:20;;;;;;;1.95;1.38;;;;;;;;;;4870153;29;20167;-69